Strona główna
METAR-TAF:

METAR-TAF

Lotnisko :

Thoothukudi, Indie

Szerokość geograficzna: 8-43-27N, Długość geograficzna: 78-01-33E, wysokość: 39 m

Aktualna obserwacja pogody

Raport powstał 14 godziny i 57 minut temu, godzina 08:00 UTC
Wiatr 12 kt od południowy zachód
Temperatura 35°C
Wilgotność 47%
Ciśnienie 1007 hPa
Widzialność: 6000 m
Mało chmury na wysokości 1600 ft
Rozproszone chmury na wysokości 2000 ft
Mało chmury na wysokości 3000 ft, Cumulonimbus.

METAR: VOTK 300800Z 22012KT 6000 FEW016 SCT020 FEW030CB 35/22 Q1007 NOSIG

czas: 04:27 (22:57 UTC)


TAF: brakujący

Obserwacja i prognoza pogody dla ponad 4000 lotnisk (raport METAR i TAF).

Dostępne stacje oznaczono żółtymi i czerwonymi punktami na mapie.

Najedź kursorem aby zobaczyć nazwę stacji.

Kliknij aby zobaczyć obserwacje i prognozy pogody.

Aby zmienić mapę: kliknij na zielony przycisk z czarnym krzyżykiem, aby powiększyć; na zielony przycisk z myślnikiem, aby pomniejszyć; na zielone strzałki, aby przejść do map sąsiednich.


METAR-TAF: